sensor_id;sensor_type;location;lat;lon;timestamp;P1;durP1;ratioP1;P2;durP2;ratioP2
23086;SDS011;11712;51.134;4.156;2023-02-15T00:01:35;0.50;;;0.50;;
23086;SDS011;11712;51.134;4.156;2023-02-15T00:04:02;0.50;;;0.50;;
23086;SDS011;11712;51.134;4.156;2023-02-15T00:06:29;0.50;;;0.50;;
23086;SDS011;11712;51.134;4.156;2023-02-15T00:08:54;0.50;;;0.50;;
23086;SDS011;11712;51.134;4.156;2023-02-15T00:11:21;0.45;;;0.45;;
23086;SDS011;11712;51.134;4.156;2023-02-15T00:16:34;0.50;;;0.50;;
23086;SDS011;11712;51.134;4.156;2023-02-15T00:19:00;0.50;;;0.50;;
23086;SDS011;11712;51.134;4.156;2023-02-15T00:21:27;0.50;;;0.50;;
23086;SDS011;11712;51.134;4.156;2023-02-15T00:23:55;0.50;;;0.50;;
23086;SDS011;11712;51.134;4.156;2023-02-15T00:26:21;0.50;;;0.50;;
23086;SDS011;11712;51.134;4.156;2023-02-15T00:28:47;0.50;;;0.50;;
23086;SDS011;11712;51.134;4.156;2023-02-15T00:31:13;0.50;;;0.50;;
23086;SDS011;11712;51.134;4.156;2023-02-15T00:33:39;0.50;;;0.50;;
23086;SDS011;11712;51.134;4.156;2023-02-15T00:36:05;0.50;;;0.50;;
23086;SDS011;11712;51.134;4.156;2023-02-15T00:38:32;0.50;;;0.50;;
23086;SDS011;11712;51.134;4.156;2023-02-15T00:40:59;0.50;;;0.50;;
23086;SDS011;11712;51.134;4.156;2023-02-15T00:43:27;0.50;;;0.50;;
23086;SDS011;11712;51.134;4.156;2023-02-15T00:45:53;0.50;;;0.50;;
23086;SDS011;11712;51.134;4.156;2023-02-15T00:48:19;0.50;;;0.50;;
23086;SDS011;11712;51.134;4.156;2023-02-15T00:50:46;0.50;;;0.50;;
23086;SDS011;11712;51.134;4.156;2023-02-15T00:53:14;0.50;;;0.50;;
23086;SDS011;11712;51.134;4.156;2023-02-15T00:55:39;0.50;;;0.50;;
23086;SDS011;11712;51.134;4.156;2023-02-15T00:58:06;0.50;;;0.50;;
23086;SDS011;11712;51.134;4.156;2023-02-15T01:00:32;0.50;;;0.50;;
23086;SDS011;11712;51.134;4.156;2023-02-15T01:02:58;0.50;;;0.50;;
23086;SDS011;11712;51.134;4.156;2023-02-15T01:05:24;0.50;;;0.50;;
23086;SDS011;11712;51.134;4.156;2023-02-15T01:07:49;0.50;;;0.50;;
23086;SDS011;11712;51.134;4.156;2023-02-15T01:10:15;0.50;;;0.50;;
23086;SDS011;11712;51.134;4.156;2023-02-15T01:12:41;0.50;;;0.50;;
23086;SDS011;11712;51.134;4.156;2023-02-15T01:15:07;0.50;;;0.50;;
23086;SDS011;11712;51.134;4.156;2023-02-15T01:17:33;0.50;;;0.50;;
23086;SDS011;11712;51.134;4.156;2023-02-15T01:19:59;0.50;;;0.50;;
23086;SDS011;11712;51.134;4.156;2023-02-15T01:22:24;0.55;;;0.55;;
23086;SDS011;11712;51.134;4.156;2023-02-15T01:24:50;0.50;;;0.50;;
23086;SDS011;11712;51.134;4.156;2023-02-15T01:27:16;0.50;;;0.50;;
23086;SDS011;11712;51.134;4.156;2023-02-15T01:29:42;0.50;;;0.50;;
23086;SDS011;11712;51.134;4.156;2023-02-15T01:32:08;0.50;;;0.50;;
23086;SDS011;11712;51.134;4.156;2023-02-15T01:34:34;0.50;;;0.50;;
23086;SDS011;11712;51.134;4.156;2023-02-15T01:37:00;0.50;;;0.50;;
23086;SDS011;11712;51.134;4.156;2023-02-15T01:39:25;0.50;;;0.50;;
23086;SDS011;11712;51.134;4.156;2023-02-15T01:41:51;0.50;;;0.50;;
23086;SDS011;11712;51.134;4.156;2023-02-15T01:45:00;0.60;;;0.60;;
23086;SDS011;11712;51.134;4.156;2023-02-15T01:47:12;0.50;;;0.50;;
23086;SDS011;11712;51.134;4.156;2023-02-15T01:49:45;0.52;;;0.52;;
23086;SDS011;11712;51.134;4.156;2023-02-15T01:52:12;0.50;;;0.50;;
23086;SDS011;11712;51.134;4.156;2023-02-15T01:54:41;0.50;;;0.50;;
23086;SDS011;11712;51.134;4.156;2023-02-15T01:57:14;0.50;;;0.50;;
23086;SDS011;11712;51.134;4.156;2023-02-15T01:59:44;0.50;;;0.50;;
23086;SDS011;11712;51.134;4.156;2023-02-15T02:02:13;0.50;;;0.50;;
23086;SDS011;11712;51.134;4.156;2023-02-15T02:04:44;0.60;;;0.60;;
23086;SDS011;11712;51.134;4.156;2023-02-15T02:07:17;0.50;;;0.50;;
23086;SDS011;11712;51.134;4.156;2023-02-15T02:09:45;0.50;;;0.50;;
23086;SDS011;11712;51.134;4.156;2023-02-15T02:12:12;0.50;;;0.50;;
23086;SDS011;11712;51.134;4.156;2023-02-15T02:14:39;0.50;;;0.50;;
23086;SDS011;11712;51.134;4.156;2023-02-15T02:17:13;0.50;;;0.50;;
23086;SDS011;11712;51.134;4.156;2023-02-15T02:20:17;0.50;;;0.50;;
23086;SDS011;11712;51.134;4.156;2023-02-15T02:36:56;0.50;;;0.50;;
23086;SDS011;11712;51.134;4.156;2023-02-15T02:39:41;0.50;;;0.50;;
23086;SDS011;11712;51.134;4.156;2023-02-15T02:42:23;0.50;;;0.50;;
23086;SDS011;11712;51.134;4.156;2023-02-15T02:47:40;0.50;;;0.50;;
23086;SDS011;11712;51.134;4.156;2023-02-15T02:52:45;0.50;;;0.50;;
23086;SDS011;11712;51.134;4.156;2023-02-15T02:57:51;0.50;;;0.50;;
23086;SDS011;11712;51.134;4.156;2023-02-15T03:00:20;0.50;;;0.50;;
23086;SDS011;11712;51.134;4.156;2023-02-15T03:02:48;0.50;;;0.50;;
23086;SDS011;11712;51.134;4.156;2023-02-15T03:05:23;0.50;;;0.50;;
23086;SDS011;11712;51.134;4.156;2023-02-15T03:07:51;0.50;;;0.50;;
23086;SDS011;11712;51.134;4.156;2023-02-15T03:10:19;0.50;;;0.50;;
23086;SDS011;11712;51.134;4.156;2023-02-15T03:12:47;0.50;;;0.50;;
23086;SDS011;11712;51.134;4.156;2023-02-15T03:15:20;0.50;;;0.50;;
23086;SDS011;11712;51.134;4.156;2023-02-15T03:17:51;0.50;;;0.50;;
23086;SDS011;11712;51.134;4.156;2023-02-15T03:20:24;0.50;;;0.50;;
23086;SDS011;11712;51.134;4.156;2023-02-15T03:23:02;0.43;;;0.43;;
23086;SDS011;11712;51.134;4.156;2023-02-15T03:25:36;0.60;;;0.60;;
23086;SDS011;11712;51.134;4.156;2023-02-15T03:28:06;0.50;;;0.50;;
23086;SDS011;11712;51.134;4.156;2023-02-15T03:30:38;0.50;;;0.50;;
23086;SDS011;11712;51.134;4.156;2023-02-15T03:33:07;0.50;;;0.50;;
23086;SDS011;11712;51.134;4.156;2023-02-15T03:35:54;0.50;;;0.50;;
23086;SDS011;11712;51.134;4.156;2023-02-15T03:38:31;0.50;;;0.50;;
23086;SDS011;11712;51.134;4.156;2023-02-15T03:41:01;0.50;;;0.50;;
23086;SDS011;11712;51.134;4.156;2023-02-15T03:43:41;0.50;;;0.50;;
23086;SDS011;11712;51.134;4.156;2023-02-15T03:48:45;0.50;;;0.50;;
23086;SDS011;11712;51.134;4.156;2023-02-15T03:51:33;0.50;;;0.50;;
23086;SDS011;11712;51.134;4.156;2023-02-15T03:57:12;0.50;;;0.50;;
23086;SDS011;11712;51.134;4.156;2023-02-15T04:00:00;0.50;;;0.50;;
23086;SDS011;11712;51.134;4.156;2023-02-15T04:05:38;0.60;;;0.60;;
23086;SDS011;11712;51.134;4.156;2023-02-15T04:08:03;0.50;;;0.50;;
23086;SDS011;11712;51.134;4.156;2023-02-15T04:10:29;0.50;;;0.50;;
23086;SDS011;11712;51.134;4.156;2023-02-15T04:13:13;0.50;;;0.50;;
23086;SDS011;11712;51.134;4.156;2023-02-15T04:15:39;0.60;;;0.60;;
23086;SDS011;11712;51.134;4.156;2023-02-15T04:18:23;0.50;;;0.50;;
23086;SDS011;11712;51.134;4.156;2023-02-15T04:21:07;0.50;;;0.50;;
23086;SDS011;11712;51.134;4.156;2023-02-15T04:23:51;0.50;;;0.50;;
23086;SDS011;11712;51.134;4.156;2023-02-15T04:26:36;0.50;;;0.50;;
23086;SDS011;11712;51.134;4.156;2023-02-15T04:29:01;0.50;;;0.50;;
23086;SDS011;11712;51.134;4.156;2023-02-15T04:31:27;0.50;;;0.50;;
23086;SDS011;11712;51.134;4.156;2023-02-15T04:33:53;0.50;;;0.50;;
23086;SDS011;11712;51.134;4.156;2023-02-15T04:36:18;0.50;;;0.50;;
23086;SDS011;11712;51.134;4.156;2023-02-15T04:38:44;0.55;;;0.55;;
23086;SDS011;11712;51.134;4.156;2023-02-15T04:41:09;0.50;;;0.50;;
23086;SDS011;11712;51.134;4.156;2023-02-15T04:43:37;0.50;;;0.50;;
23086;SDS011;11712;51.134;4.156;2023-02-15T04:46:02;0.50;;;0.50;;
23086;SDS011;11712;51.134;4.156;2023-02-15T04:48:28;0.50;;;0.50;;
23086;SDS011;11712;51.134;4.156;2023-02-15T04:50:54;0.60;;;0.60;;
23086;SDS011;11712;51.134;4.156;2023-02-15T04:53:20;0.50;;;0.50;;
23086;SDS011;11712;51.134;4.156;2023-02-15T04:55:45;0.50;;;0.50;;
23086;SDS011;11712;51.134;4.156;2023-02-15T04:58:11;0.52;;;0.52;;
23086;SDS011;11712;51.134;4.156;2023-02-15T05:00:37;0.55;;;0.55;;
23086;SDS011;11712;51.134;4.156;2023-02-15T05:03:02;0.50;;;0.50;;
23086;SDS011;11712;51.134;4.156;2023-02-15T05:05:28;0.60;;;0.60;;
23086;SDS011;11712;51.134;4.156;2023-02-15T05:07:54;0.50;;;0.50;;
23086;SDS011;11712;51.134;4.156;2023-02-15T05:10:20;0.52;;;0.52;;
23086;SDS011;11712;51.134;4.156;2023-02-15T05:12:46;0.60;;;0.60;;
23086;SDS011;11712;51.134;4.156;2023-02-15T05:15:11;0.50;;;0.50;;
23086;SDS011;11712;51.134;4.156;2023-02-15T05:17:37;0.50;;;0.50;;
23086;SDS011;11712;51.134;4.156;2023-02-15T05:20:03;0.50;;;0.50;;
23086;SDS011;11712;51.134;4.156;2023-02-15T05:22:31;0.50;;;0.50;;
23086;SDS011;11712;51.134;4.156;2023-02-15T05:24:57;0.50;;;0.50;;
23086;SDS011;11712;51.134;4.156;2023-02-15T05:27:41;0.50;;;0.50;;
23086;SDS011;11712;51.134;4.156;2023-02-15T05:30:25;0.55;;;0.55;;
23086;SDS011;11712;51.134;4.156;2023-02-15T05:32:51;0.52;;;0.52;;
23086;SDS011;11712;51.134;4.156;2023-02-15T05:35:16;0.50;;;0.50;;
23086;SDS011;11712;51.134;4.156;2023-02-15T05:37:42;0.50;;;0.50;;
23086;SDS011;11712;51.134;4.156;2023-02-15T05:40:08;0.50;;;0.50;;
23086;SDS011;11712;51.134;4.156;2023-02-15T05:42:34;0.50;;;0.50;;
23086;SDS011;11712;51.134;4.156;2023-02-15T05:45:00;0.50;;;0.50;;
23086;SDS011;11712;51.134;4.156;2023-02-15T05:47:26;0.60;;;0.60;;
23086;SDS011;11712;51.134;4.156;2023-02-15T05:49:51;0.50;;;0.50;;
23086;SDS011;11712;51.134;4.156;2023-02-15T05:52:17;0.50;;;0.50;;
23086;SDS011;11712;51.134;4.156;2023-02-15T05:54:43;0.50;;;0.50;;
23086;SDS011;11712;51.134;4.156;2023-02-15T05:57:08;0.60;;;0.60;;
23086;SDS011;11712;51.134;4.156;2023-02-15T05:59:34;0.50;;;0.50;;
23086;SDS011;11712;51.134;4.156;2023-02-15T06:02:00;0.50;;;0.50;;
23086;SDS011;11712;51.134;4.156;2023-02-15T06:04:25;0.50;;;0.50;;
23086;SDS011;11712;51.134;4.156;2023-02-15T06:06:51;0.50;;;0.50;;
23086;SDS011;11712;51.134;4.156;2023-02-15T06:09:17;0.50;;;0.50;;
23086;SDS011;11712;51.134;4.156;2023-02-15T06:11:43;0.52;;;0.52;;
23086;SDS011;11712;51.134;4.156;2023-02-15T06:14:10;0.50;;;0.50;;
23086;SDS011;11712;51.134;4.156;2023-02-15T06:16:36;0.50;;;0.50;;
23086;SDS011;11712;51.134;4.156;2023-02-15T06:19:02;0.50;;;0.50;;
23086;SDS011;11712;51.134;4.156;2023-02-15T06:21:29;0.50;;;0.50;;
23086;SDS011;11712;51.134;4.156;2023-02-15T06:23:55;0.50;;;0.50;;
23086;SDS011;11712;51.134;4.156;2023-02-15T06:26:21;0.57;;;0.57;;
23086;SDS011;11712;51.134;4.156;2023-02-15T06:28:46;0.55;;;0.55;;
23086;SDS011;11712;51.134;4.156;2023-02-15T06:31:12;0.60;;;0.60;;
23086;SDS011;11712;51.134;4.156;2023-02-15T06:33:38;0.50;;;0.50;;
23086;SDS011;11712;51.134;4.156;2023-02-15T06:36:04;0.50;;;0.50;;
23086;SDS011;11712;51.134;4.156;2023-02-15T06:38:30;0.50;;;0.50;;
23086;SDS011;11712;51.134;4.156;2023-02-15T06:40:56;0.50;;;0.50;;
23086;SDS011;11712;51.134;4.156;2023-02-15T06:43:22;0.50;;;0.50;;
23086;SDS011;11712;51.134;4.156;2023-02-15T06:45:47;0.50;;;0.50;;
23086;SDS011;11712;51.134;4.156;2023-02-15T06:48:13;0.50;;;0.50;;
23086;SDS011;11712;51.134;4.156;2023-02-15T06:50:39;0.50;;;0.50;;
23086;SDS011;11712;51.134;4.156;2023-02-15T06:53:04;0.50;;;0.50;;
23086;SDS011;11712;51.134;4.156;2023-02-15T06:55:30;0.50;;;0.50;;
23086;SDS011;11712;51.134;4.156;2023-02-15T06:57:56;0.50;;;0.50;;
23086;SDS011;11712;51.134;4.156;2023-02-15T07:00:21;0.50;;;0.50;;
23086;SDS011;11712;51.134;4.156;2023-02-15T07:02:52;0.50;;;0.50;;
23086;SDS011;11712;51.134;4.156;2023-02-15T07:05:20;0.50;;;0.50;;
23086;SDS011;11712;51.134;4.156;2023-02-15T07:07:49;0.50;;;0.50;;
23086;SDS011;11712;51.134;4.156;2023-02-15T07:10:15;0.50;;;0.50;;
23086;SDS011;11712;51.134;4.156;2023-02-15T07:12:41;0.60;;;0.60;;
23086;SDS011;11712;51.134;4.156;2023-02-15T07:15:14;0.50;;;0.50;;
23086;SDS011;11712;51.134;4.156;2023-02-15T07:17:42;0.50;;;0.50;;
23086;SDS011;11712;51.134;4.156;2023-02-15T07:20:10;0.50;;;0.50;;
23086;SDS011;11712;51.134;4.156;2023-02-15T07:22:42;0.50;;;0.50;;
23086;SDS011;11712;51.134;4.156;2023-02-15T07:25:09;0.50;;;0.50;;
23086;SDS011;11712;51.134;4.156;2023-02-15T07:27:36;0.50;;;0.50;;
23086;SDS011;11712;51.134;4.156;2023-02-15T07:30:02;0.60;;;0.60;;
23086;SDS011;11712;51.134;4.156;2023-02-15T07:32:30;0.50;;;0.50;;
23086;SDS011;11712;51.134;4.156;2023-02-15T07:34:57;0.40;;;0.40;;
23086;SDS011;11712;51.134;4.156;2023-02-15T07:37:23;0.50;;;0.50;;
23086;SDS011;11712;51.134;4.156;2023-02-15T07:39:49;0.50;;;0.50;;
23086;SDS011;11712;51.134;4.156;2023-02-15T07:42:15;0.50;;;0.50;;
23086;SDS011;11712;51.134;4.156;2023-02-15T07:44:40;0.50;;;0.50;;
23086;SDS011;11712;51.134;4.156;2023-02-15T07:47:06;0.57;;;0.57;;
23086;SDS011;11712;51.134;4.156;2023-02-15T07:49:32;0.50;;;0.50;;
23086;SDS011;11712;51.134;4.156;2023-02-15T07:51:58;0.50;;;0.50;;
23086;SDS011;11712;51.134;4.156;2023-02-15T07:54:26;0.50;;;0.50;;
23086;SDS011;11712;51.134;4.156;2023-02-15T07:56:52;0.50;;;0.50;;
23086;SDS011;11712;51.134;4.156;2023-02-15T07:59:18;0.50;;;0.50;;
23086;SDS011;11712;51.134;4.156;2023-02-15T08:01:43;0.55;;;0.55;;
23086;SDS011;11712;51.134;4.156;2023-02-15T08:04:09;0.50;;;0.50;;
23086;SDS011;11712;51.134;4.156;2023-02-15T08:06:36;0.50;;;0.50;;
23086;SDS011;11712;51.134;4.156;2023-02-15T08:09:03;0.50;;;0.50;;
23086;SDS011;11712;51.134;4.156;2023-02-15T08:11:31;0.60;;;0.60;;
23086;SDS011;11712;51.134;4.156;2023-02-15T08:14:17;0.50;;;0.50;;
23086;SDS011;11712;51.134;4.156;2023-02-15T08:19:12;0.50;;;0.50;;
23086;SDS011;11712;51.134;4.156;2023-02-15T08:21:41;0.50;;;0.50;;
23086;SDS011;11712;51.134;4.156;2023-02-15T08:24:09;0.60;;;0.60;;
23086;SDS011;11712;51.134;4.156;2023-02-15T08:26:35;0.60;;;0.60;;
23086;SDS011;11712;51.134;4.156;2023-02-15T08:29:04;0.60;;;0.60;;
23086;SDS011;11712;51.134;4.156;2023-02-15T08:31:31;0.50;;;0.50;;
23086;SDS011;11712;51.134;4.156;2023-02-15T08:33:58;0.50;;;0.50;;
23086;SDS011;11712;51.134;4.156;2023-02-15T08:36:25;0.50;;;0.50;;
23086;SDS011;11712;51.134;4.156;2023-02-15T08:38:52;0.50;;;0.50;;
23086;SDS011;11712;51.134;4.156;2023-02-15T08:41:23;0.50;;;0.50;;
23086;SDS011;11712;51.134;4.156;2023-02-15T08:43:51;0.50;;;0.50;;
23086;SDS011;11712;51.134;4.156;2023-02-15T08:46:19;0.50;;;0.50;;
23086;SDS011;11712;51.134;4.156;2023-02-15T08:48:45;0.50;;;0.50;;
23086;SDS011;11712;51.134;4.156;2023-02-15T08:51:12;0.50;;;0.50;;
23086;SDS011;11712;51.134;4.156;2023-02-15T08:53:40;0.50;;;0.50;;
23086;SDS011;11712;51.134;4.156;2023-02-15T08:56:11;0.50;;;0.50;;
23086;SDS011;11712;51.134;4.156;2023-02-15T08:58:37;0.50;;;0.50;;
23086;SDS011;11712;51.134;4.156;2023-02-15T09:01:13;0.50;;;0.50;;
23086;SDS011;11712;51.134;4.156;2023-02-15T09:03:45;0.50;;;0.50;;
23086;SDS011;11712;51.134;4.156;2023-02-15T09:06:12;0.50;;;0.50;;
23086;SDS011;11712;51.134;4.156;2023-02-15T09:08:38;0.50;;;0.50;;
23086;SDS011;11712;51.134;4.156;2023-02-15T09:13:48;0.50;;;0.50;;
23086;SDS011;11712;51.134;4.156;2023-02-15T09:16:18;0.50;;;0.50;;
23086;SDS011;11712;51.134;4.156;2023-02-15T09:18:44;0.50;;;0.50;;
23086;SDS011;11712;51.134;4.156;2023-02-15T09:21:12;0.50;;;0.50;;
23086;SDS011;11712;51.134;4.156;2023-02-15T09:23:39;0.50;;;0.50;;
23086;SDS011;11712;51.134;4.156;2023-02-15T09:26:07;0.50;;;0.50;;
23086;SDS011;11712;51.134;4.156;2023-02-15T09:28:37;0.45;;;0.45;;
23086;SDS011;11712;51.134;4.156;2023-02-15T09:31:06;0.50;;;0.50;;
23086;SDS011;11712;51.134;4.156;2023-02-15T09:33:46;0.50;;;0.50;;
23086;SDS011;11712;51.134;4.156;2023-02-15T09:38:46;0.50;;;0.50;;
23086;SDS011;11712;51.134;4.156;2023-02-15T09:43:46;0.50;;;0.50;;
23086;SDS011;11712;51.134;4.156;2023-02-15T09:48:52;0.50;;;0.50;;
23086;SDS011;11712;51.134;4.156;2023-02-15T09:52:20;0.50;;;0.50;;
23086;SDS011;11712;51.134;4.156;2023-02-15T09:54:49;0.50;;;0.50;;
23086;SDS011;11712;51.134;4.156;2023-02-15T10:00:31;0.50;;;0.50;;
23086;SDS011;11712;51.134;4.156;2023-02-15T10:03:12;0.40;;;0.40;;
23086;SDS011;11712;51.134;4.156;2023-02-15T10:11:35;0.43;;;0.43;;
23086;SDS011;11712;51.134;4.156;2023-02-15T10:22:22;0.50;;;0.50;;
23086;SDS011;11712;51.134;4.156;2023-02-15T10:25:16;0.40;;;0.40;;
23086;SDS011;11712;51.134;4.156;2023-02-15T10:28:09;0.50;;;0.50;;
23086;SDS011;11712;51.134;4.156;2023-02-15T10:30:47;0.50;;;0.50;;
23086;SDS011;11712;51.134;4.156;2023-02-15T10:36:22;0.47;;;0.47;;
23086;SDS011;11712;51.134;4.156;2023-02-15T10:38:56;0.50;;;0.50;;
23086;SDS011;11712;51.134;4.156;2023-02-15T10:49:58;0.50;;;0.50;;
23086;SDS011;11712;51.134;4.156;2023-02-15T10:58:46;0.47;;;0.47;;
23086;SDS011;11712;51.134;4.156;2023-02-15T11:06:41;0.40;;;0.40;;
23086;SDS011;11712;51.134;4.156;2023-02-15T11:11:44;0.40;;;0.40;;
23086;SDS011;11712;51.134;4.156;2023-02-15T11:14:18;0.40;;;0.40;;
23086;SDS011;11712;51.134;4.156;2023-02-15T11:17:12;0.50;;;0.50;;
23086;SDS011;11712;51.134;4.156;2023-02-15T11:19:51;0.50;;;0.50;;
23086;SDS011;11712;51.134;4.156;2023-02-15T11:22:19;0.40;;;0.40;;
23086;SDS011;11712;51.134;4.156;2023-02-15T11:24:45;0.40;;;0.40;;
23086;SDS011;11712;51.134;4.156;2023-02-15T11:32:14;0.50;;;0.50;;
23086;SDS011;11712;51.134;4.156;2023-02-15T11:40:15;0.50;;;0.50;;
23086;SDS011;11712;51.134;4.156;2023-02-15T11:42:43;0.43;;;0.43;;
23086;SDS011;11712;51.134;4.156;2023-02-15T11:47:52;0.50;;;0.50;;
23086;SDS011;11712;51.134;4.156;2023-02-15T11:50:28;0.40;;;0.40;;
23086;SDS011;11712;51.134;4.156;2023-02-15T11:53:00;0.40;;;0.40;;
23086;SDS011;11712;51.134;4.156;2023-02-15T11:55:29;0.40;;;0.40;;
23086;SDS011;11712;51.134;4.156;2023-02-15T11:58:17;0.40;;;0.40;;
23086;SDS011;11712;51.134;4.156;2023-02-15T12:04:10;0.50;;;0.50;;
23086;SDS011;11712;51.134;4.156;2023-02-15T12:11:52;0.40;;;0.40;;
23086;SDS011;11712;51.134;4.156;2023-02-15T12:14:18;0.50;;;0.50;;
23086;SDS011;11712;51.134;4.156;2023-02-15T12:18:40;0.40;;;0.40;;
23086;SDS011;11712;51.134;4.156;2023-02-15T12:23:41;0.40;;;0.40;;
23086;SDS011;11712;51.134;4.156;2023-02-15T12:26:13;0.40;;;0.40;;
23086;SDS011;11712;51.134;4.156;2023-02-15T12:28:43;0.40;;;0.40;;
23086;SDS011;11712;51.134;4.156;2023-02-15T12:34:08;0.50;;;0.50;;
23086;SDS011;11712;51.134;4.156;2023-02-15T12:36:46;0.47;;;0.47;;
23086;SDS011;11712;51.134;4.156;2023-02-15T12:39:16;0.40;;;0.40;;
23086;SDS011;11712;51.134;4.156;2023-02-15T12:44:23;0.50;;;0.50;;
23086;SDS011;11712;51.134;4.156;2023-02-15T12:47:17;0.50;;;0.50;;
23086;SDS011;11712;51.134;4.156;2023-02-15T12:49:44;0.40;;;0.40;;
23086;SDS011;11712;51.134;4.156;2023-02-15T12:52:41;0.40;;;0.40;;
23086;SDS011;11712;51.134;4.156;2023-02-15T12:55:19;0.50;;;0.50;;
23086;SDS011;11712;51.134;4.156;2023-02-15T12:57:46;0.40;;;0.40;;
23086;SDS011;11712;51.134;4.156;2023-02-15T13:00:24;0.43;;;0.43;;
23086;SDS011;11712;51.134;4.156;2023-02-15T13:02:54;0.40;;;0.40;;
23086;SDS011;11712;51.134;4.156;2023-02-15T13:10:51;0.40;;;0.40;;
23086;SDS011;11712;51.134;4.156;2023-02-15T13:13:58;0.40;;;0.40;;
23086;SDS011;11712;51.134;4.156;2023-02-15T13:16:33;0.40;;;0.40;;
23086;SDS011;11712;51.134;4.156;2023-02-15T13:19:16;0.50;;;0.50;;
23086;SDS011;11712;51.134;4.156;2023-02-15T13:21:45;0.50;;;0.50;;
23086;SDS011;11712;51.134;4.156;2023-02-15T13:26:47;0.40;;;0.40;;
23086;SDS011;11712;51.134;4.156;2023-02-15T13:29:23;0.40;;;0.40;;
23086;SDS011;11712;51.134;4.156;2023-02-15T13:31:54;0.40;;;0.40;;
23086;SDS011;11712;51.134;4.156;2023-02-15T13:34:25;0.40;;;0.40;;
23086;SDS011;11712;51.134;4.156;2023-02-15T13:55:40;0.43;;;0.43;;
23086;SDS011;11712;51.134;4.156;2023-02-15T13:58:51;0.50;;;0.50;;
23086;SDS011;11712;51.134;4.156;2023-02-15T14:01:27;0.50;;;0.50;;
23086;SDS011;11712;51.134;4.156;2023-02-15T14:04:10;0.40;;;0.40;;
23086;SDS011;11712;51.134;4.156;2023-02-15T14:09:31;0.50;;;0.50;;
23086;SDS011;11712;51.134;4.156;2023-02-15T14:20:51;0.50;;;0.50;;
23086;SDS011;11712;51.134;4.156;2023-02-15T14:23:33;0.45;;;0.45;;
23086;SDS011;11712;51.134;4.156;2023-02-15T14:31:35;0.40;;;0.40;;
23086;SDS011;11712;51.134;4.156;2023-02-15T14:34:08;0.50;;;0.50;;
23086;SDS011;11712;51.134;4.156;2023-02-15T14:42:32;0.40;;;0.40;;
23086;SDS011;11712;51.134;4.156;2023-02-15T14:47:48;0.40;;;0.40;;
23086;SDS011;11712;51.134;4.156;2023-02-15T14:50:35;0.40;;;0.40;;
23086;SDS011;11712;51.134;4.156;2023-02-15T14:56:20;3.33;;;3.00;;
23086;SDS011;11712;51.134;4.156;2023-02-15T15:01:24;0.45;;;0.45;;
23086;SDS011;11712;51.134;4.156;2023-02-15T15:03:51;0.40;;;0.40;;
23086;SDS011;11712;51.134;4.156;2023-02-15T15:06:40;0.50;;;0.50;;
23086;SDS011;11712;51.134;4.156;2023-02-15T15:09:12;0.40;;;0.40;;
23086;SDS011;11712;51.134;4.156;2023-02-15T15:11:47;0.88;;;0.88;;
23086;SDS011;11712;51.134;4.156;2023-02-15T15:16:59;0.68;;;0.68;;
23086;SDS011;11712;51.134;4.156;2023-02-15T15:22:18;0.50;;;0.50;;
23086;SDS011;11712;51.134;4.156;2023-02-15T15:49:14;1.45;;;0.88;;
23086;SDS011;11712;51.134;4.156;2023-02-15T15:51:43;1.60;;;1.50;;
23086;SDS011;11712;51.134;4.156;2023-02-15T15:54:23;0.40;;;0.40;;
23086;SDS011;11712;51.134;4.156;2023-02-15T15:56:55;0.50;;;0.50;;
23086;SDS011;11712;51.134;4.156;2023-02-15T15:59:27;2.17;;;1.80;;
23086;SDS011;11712;51.134;4.156;2023-02-15T16:01:55;0.70;;;0.70;;
23086;SDS011;11712;51.134;4.156;2023-02-15T16:04:28;0.40;;;0.40;;
23086;SDS011;11712;51.134;4.156;2023-02-15T16:06:56;1.60;;;1.50;;
23086;SDS011;11712;51.134;4.156;2023-02-15T16:09:26;0.50;;;0.50;;
23086;SDS011;11712;51.134;4.156;2023-02-15T16:11:58;0.40;;;0.40;;
23086;SDS011;11712;51.134;4.156;2023-02-15T16:14:30;3.95;;;3.60;;
23086;SDS011;11712;51.134;4.156;2023-02-15T16:17:00;18.63;;;12.80;;
23086;SDS011;11712;51.134;4.156;2023-02-15T16:19:28;20.27;;;15.52;;
23086;SDS011;11712;51.134;4.156;2023-02-15T16:21:57;18.70;;;14.98;;
23086;SDS011;11712;51.134;4.156;2023-02-15T16:24:38;16.23;;;13.90;;
23086;SDS011;11712;51.134;4.156;2023-02-15T16:30:31;9.23;;;8.32;;
23086;SDS011;11712;51.134;4.156;2023-02-15T16:33:08;7.20;;;6.50;;
23086;SDS011;11712;51.134;4.156;2023-02-15T16:35:41;0.40;;;0.40;;
23086;SDS011;11712;51.134;4.156;2023-02-15T16:41:11;6.95;;;5.97;;
23086;SDS011;11712;51.134;4.156;2023-02-15T16:43:43;0.50;;;0.50;;
23086;SDS011;11712;51.134;4.156;2023-02-15T16:46:13;0.50;;;0.50;;
23086;SDS011;11712;51.134;4.156;2023-02-15T16:48:52;0.40;;;0.40;;
23086;SDS011;11712;51.134;4.156;2023-02-15T16:51:23;0.40;;;0.40;;
23086;SDS011;11712;51.134;4.156;2023-02-15T16:53:51;0.47;;;0.47;;
23086;SDS011;11712;51.134;4.156;2023-02-15T16:56:25;1.75;;;1.42;;
23086;SDS011;11712;51.134;4.156;2023-02-15T16:58:55;0.40;;;0.40;;
23086;SDS011;11712;51.134;4.156;2023-02-15T17:01:23;0.40;;;0.40;;
23086;SDS011;11712;51.134;4.156;2023-02-15T17:04:09;0.50;;;0.50;;
23086;SDS011;11712;51.134;4.156;2023-02-15T17:07:05;0.50;;;0.50;;
23086;SDS011;11712;51.134;4.156;2023-02-15T17:09:48;0.40;;;0.40;;
23086;SDS011;11712;51.134;4.156;2023-02-15T17:15:01;0.40;;;0.40;;
23086;SDS011;11712;51.134;4.156;2023-02-15T17:17:27;0.50;;;0.50;;
23086;SDS011;11712;51.134;4.156;2023-02-15T17:19:56;0.40;;;0.40;;
23086;SDS011;11712;51.134;4.156;2023-02-15T17:22:23;0.50;;;0.50;;
23086;SDS011;11712;51.134;4.156;2023-02-15T17:25:02;0.40;;;0.40;;
23086;SDS011;11712;51.134;4.156;2023-02-15T17:27:29;0.40;;;0.40;;
23086;SDS011;11712;51.134;4.156;2023-02-15T17:29:59;0.43;;;0.43;;
23086;SDS011;11712;51.134;4.156;2023-02-15T17:32:29;0.43;;;0.43;;
23086;SDS011;11712;51.134;4.156;2023-02-15T17:34:57;0.50;;;0.50;;
23086;SDS011;11712;51.134;4.156;2023-02-15T17:37:29;0.40;;;0.40;;
23086;SDS011;11712;51.134;4.156;2023-02-15T17:42:51;0.40;;;0.40;;
23086;SDS011;11712;51.134;4.156;2023-02-15T17:45:17;0.50;;;0.50;;
23086;SDS011;11712;51.134;4.156;2023-02-15T17:47:43;0.40;;;0.40;;
23086;SDS011;11712;51.134;4.156;2023-02-15T17:50:21;0.50;;;0.50;;
23086;SDS011;11712;51.134;4.156;2023-02-15T17:52:49;0.50;;;0.50;;
23086;SDS011;11712;51.134;4.156;2023-02-15T17:55:17;0.50;;;0.50;;
23086;SDS011;11712;51.134;4.156;2023-02-15T17:58:00;0.50;;;0.50;;
23086;SDS011;11712;51.134;4.156;2023-02-15T18:00:29;0.40;;;0.40;;
23086;SDS011;11712;51.134;4.156;2023-02-15T18:03:14;0.50;;;0.50;;
23086;SDS011;11712;51.134;4.156;2023-02-15T18:06:00;0.50;;;0.50;;
23086;SDS011;11712;51.134;4.156;2023-02-15T18:08:44;0.40;;;0.40;;
23086;SDS011;11712;51.134;4.156;2023-02-15T18:11:28;0.47;;;0.47;;
23086;SDS011;11712;51.134;4.156;2023-02-15T18:14:07;0.40;;;0.40;;
23086;SDS011;11712;51.134;4.156;2023-02-15T18:16:37;0.40;;;0.40;;
23086;SDS011;11712;51.134;4.156;2023-02-15T18:19:14;0.40;;;0.40;;
23086;SDS011;11712;51.134;4.156;2023-02-15T18:21:42;0.40;;;0.40;;
23086;SDS011;11712;51.134;4.156;2023-02-15T18:24:19;0.40;;;0.40;;
23086;SDS011;11712;51.134;4.156;2023-02-15T18:26:48;0.40;;;0.40;;
23086;SDS011;11712;51.134;4.156;2023-02-15T18:29:15;0.50;;;0.50;;
23086;SDS011;11712;51.134;4.156;2023-02-15T18:31:41;0.50;;;0.50;;
23086;SDS011;11712;51.134;4.156;2023-02-15T18:34:41;0.50;;;0.50;;
23086;SDS011;11712;51.134;4.156;2023-02-15T18:37:03;0.50;;;0.50;;
23086;SDS011;11712;51.134;4.156;2023-02-15T18:39:37;0.50;;;0.50;;
23086;SDS011;11712;51.134;4.156;2023-02-15T18:42:08;0.40;;;0.40;;
23086;SDS011;11712;51.134;4.156;2023-02-15T18:44:46;0.40;;;0.40;;
23086;SDS011;11712;51.134;4.156;2023-02-15T18:47:13;0.47;;;0.47;;
23086;SDS011;11712;51.134;4.156;2023-02-15T18:49:39;0.50;;;0.50;;
23086;SDS011;11712;51.134;4.156;2023-02-15T18:52:05;0.50;;;0.50;;